Time;durP1;ratioP1;P1;durP2;ratioP2;P2;SDS_P1;SDS_P2;PMS_P1;PMS_P2;Temp;Humidity;BMP_temperature;BMP_pressure;BME280_temperature;BME280_humidity;BME280_pressure;Samples;Min_cycle;Max_cycle;Signal;HPM_P1;HPM_P2
2022/10/08 00:01:39;;;;;;;15.73;11.10;;;16.80;99.90;;;;;;5094183;28;20479;-53
2022/10/08 00:04:07;;;;;;;10.87;9.63;;;16.80;99.90;;;;;;5092432;28;20459;-53
2022/10/08 00:06:34;;;;;;;10.57;9.47;;;16.70;99.90;;;;;;5094283;28;20456;-53
2022/10/08 00:09:06;;;;;;;11.73;10.67;;;16.60;99.90;;;;;;5094190;28;20452;-53
2022/10/08 00:11:35;;;;;;;11.80;10.60;;;16.60;99.90;;;;;;5092208;28;20466;-53
2022/10/08 00:14:03;;;;;;;14.20;11.00;;;16.50;99.90;;;;;;5094279;28;20451;-53
2022/10/08 00:16:32;;;;;;;15.93;10.90;;;16.50;99.90;;;;;;5094134;28;20542;-53
2022/10/08 00:19:02;;;;;;;18.53;11.03;;;16.50;99.90;;;;;;5092140;28;20817;-53
2022/10/08 00:21:31;;;;;;;12.40;11.10;;;16.40;99.90;;;;;;5094093;28;20447;-54
2022/10/08 00:24:00;;;;;;;14.50;11.43;;;16.40;99.90;;;;;;5094011;28;20825;-53
2022/10/08 00:26:30;;;;;;;13.00;11.70;;;16.40;99.90;;;;;;5091113;28;20443;-53
2022/10/08 00:28:59;;;;;;;12.10;10.97;;;16.30;99.90;;;;;;5093699;28;20431;-53
2022/10/08 00:31:29;;;;;;;13.57;11.10;;;16.30;99.90;;;;;;5094211;28;20494;-54
2022/10/08 00:33:58;;;;;;;12.83;11.40;;;16.20;99.90;;;;;;5091687;28;20460;-53
2022/10/08 00:36:28;;;;;;;12.17;10.17;;;16.10;99.90;;;;;;5093957;28;20509;-53
2022/10/08 00:38:56;;;;;;;10.93;9.97;;;16.00;99.90;;;;;;5093892;28;20443;-53
2022/10/08 00:41:25;;;;;;;12.17;10.87;;;16.00;99.90;;;;;;5091442;28;20444;-53
2022/10/08 00:43:56;;;;;;;11.60;10.50;;;16.00;99.90;;;;;;5093845;28;20809;-53
2022/10/08 00:46:27;;;;;;;11.63;10.63;;;16.00;99.90;;;;;;5093691;28;20475;-53
2022/10/08 00:49:01;;;;;;;12.70;11.50;;;16.00;99.90;;;;;;5091178;28;20432;-54
2022/10/08 00:51:30;;;;;;;11.40;10.30;;;16.00;99.90;;;;;;5093788;28;20423;-53
2022/10/08 00:53:58;;;;;;;12.90;10.70;;;15.90;99.90;;;;;;5093061;28;20969;-53
2022/10/08 00:56:26;;;;;;;17.77;11.77;;;15.90;99.90;;;;;;5090721;28;20767;-53
2022/10/08 00:58:54;;;;;;;12.70;9.93;;;15.90;99.90;;;;;;5093340;28;20561;-54
2022/10/08 01:01:21;;;;;;;11.77;10.57;;;15.80;99.90;;;;;;5092974;28;20471;-53
2022/10/08 01:03:49;;;;;;;11.37;10.20;;;15.80;99.90;;;;;;5091114;28;20431;-53
2022/10/08 01:06:26;;;;;;;12.60;11.30;;;15.80;99.90;;;;;;5093163;28;20833;-54
2022/10/08 01:09:01;;;;;;;10.50;9.50;;;15.70;99.90;;;;;;5093064;28;20424;-53
2022/10/08 01:11:46;;;;;;;12.77;10.83;;;15.60;99.90;;;;;;5090883;28;20431;-53
2022/10/08 01:14:24;;;;;;;14.67;10.50;;;15.60;99.90;;;;;;5093074;28;20432;-53
2022/10/08 01:17:06;;;;;;;11.83;10.10;;;15.60;99.90;;;;;;5091082;28;20431;-53
2022/10/08 01:20:01;;;;;;;14.00;11.10;;;15.70;99.90;;;;;;5092915;28;20434;-53
2022/10/08 01:22:40;;;;;;;10.97;9.97;;;15.60;99.90;;;;;;5092498;28;20468;-53
2022/10/08 01:25:33;;;;;;;14.83;10.63;;;15.60;99.90;;;;;;5090770;28;20463;-53
2022/10/08 01:28:06;;;;;;;12.50;11.33;;;15.60;99.90;;;;;;5092276;28;20967;-53
2022/10/08 01:30:37;;;;;;;12.77;10.87;;;15.60;99.90;;;;;;5092702;28;20530;-53
2022/10/08 01:33:11;;;;;;;11.60;10.50;;;15.60;99.90;;;;;;5090633;28;20467;-53
2022/10/08 01:35:44;;;;;;;11.93;10.07;;;15.60;99.90;;;;;;5092857;28;20438;-53
2022/10/08 01:38:15;;;;;;;9.60;8.43;;;15.60;99.90;;;;;;5092922;28;20427;-53
2022/10/08 01:40:45;;;;;;;12.80;10.97;;;15.60;99.90;;;;;;5090615;28;20447;-53
2022/10/08 01:43:17;;;;;;;11.70;10.60;;;15.60;99.90;;;;;;5092193;28;20899;-54
2022/10/08 01:45:51;;;;;;;14.10;10.53;;;15.60;99.90;;;;;;5092475;28;20470;-53
2022/10/08 01:48:23;;;;;;;14.30;12.83;;;15.60;99.90;;;;;;5090856;28;20422;-53
2022/10/08 01:50:55;;;;;;;11.57;10.00;;;15.60;99.90;;;;;;5092540;28;20435;-53
2022/10/08 01:53:26;;;;;;;16.27;10.53;;;15.50;99.90;;;;;;5092332;28;20474;-53
2022/10/08 01:55:59;;;;;;;13.70;10.77;;;15.60;99.90;;;;;;5090418;28;20479;-53
2022/10/08 01:58:33;;;;;;;12.33;10.37;;;15.70;99.90;;;;;;5092065;28;20954;-53
2022/10/08 02:01:09;;;;;;;11.27;10.17;;;15.70;99.90;;;;;;5092595;28;20454;-53
2022/10/08 02:03:36;;;;;;;10.50;9.30;;;15.70;99.90;;;;;;5092631;28;20577;-52
2022/10/08 02:06:05;;;;;;;11.07;9.97;;;15.70;99.90;;;;;;5092423;28;20475;-53
2022/10/08 02:08:32;;;;;;;9.80;8.80;;;15.80;99.90;;;;;;5094268;28;20447;-54
2022/10/08 02:10:59;;;;;;;11.63;9.27;;;15.80;99.90;;;;;;5095889;28;20455;-53
2022/10/08 02:13:29;;;;;;;14.90;10.10;;;15.80;99.90;;;;;;5096504;28;20463;-53
2022/10/08 02:16:05;;;;;;;11.90;10.80;;;15.80;99.90;;;;;;5095246;28;20440;-56
2022/10/08 02:18:40;;;;;;;10.10;9.07;;;15.80;99.90;;;;;;5096111;28;20981;-53
2022/10/08 02:21:15;;;;;;;9.93;8.90;;;15.70;99.90;;;;;;5096221;28;20428;-53
2022/10/08 02:23:49;;;;;;;11.50;9.67;;;15.70;99.90;;;;;;5094342;28;20917;-53
2022/10/08 02:26:22;;;;;;;11.97;10.33;;;15.70;99.90;;;;;;5096186;28;20470;-53
2022/10/08 02:28:58;;;;;;;10.93;9.90;;;15.70;99.90;;;;;;5095670;28;20458;-53
2022/10/08 02:31:30;;;;;;;9.77;8.87;;;15.70;99.90;;;;;;5094190;28;20450;-53
2022/10/08 02:34:01;;;;;;;9.40;8.60;;;15.70;99.90;;;;;;5096014;28;20427;-53
2022/10/08 02:36:31;;;;;;;11.67;8.50;;;15.70;99.90;;;;;;5096205;28;20438;-53
2022/10/08 02:39:03;;;;;;;10.77;9.67;;;15.70;99.90;;;;;;5093690;28;20483;-53
2022/10/08 02:41:34;;;;;;;12.63;9.70;;;15.70;99.90;;;;;;5096100;28;20467;-53
2022/10/08 02:44:07;;;;;;;12.93;9.10;;;15.70;99.90;;;;;;5095949;28;20526;-53
2022/10/08 02:46:39;;;;;;;15.20;10.30;;;15.70;99.90;;;;;;5093497;28;20468;-53
2022/10/08 02:49:10;;;;;;;13.80;10.10;;;15.70;99.90;;;;;;5095894;28;20427;-53
2022/10/08 02:51:40;;;;;;;11.53;10.33;;;15.70;99.90;;;;;;5095934;28;20570;-53
2022/10/08 02:54:09;;;;;;;12.70;10.27;;;15.70;99.90;;;;;;5092192;28;20459;-53
2022/10/08 02:56:40;;;;;;;12.60;10.40;;;15.70;99.90;;;;;;5095835;28;20434;-53
2022/10/08 02:59:10;;;;;;;13.03;9.90;;;15.60;99.90;;;;;;5095424;28;20500;-53
2022/10/08 03:01:44;;;;;;;13.00;9.37;;;15.60;99.90;;;;;;5093320;28;20891;-53
2022/10/08 03:04:17;;;;;;;13.73;10.63;;;15.60;99.90;;;;;;5095577;28;20926;-53
2022/10/08 03:06:47;;;;;;;10.47;9.37;;;15.60;99.90;;;;;;5095170;28;20507;-53
2022/10/08 03:09:16;;;;;;;14.03;10.70;;;15.60;99.90;;;;;;5093328;28;20454;-55
2022/10/08 03:11:44;;;;;;;10.77;9.70;;;15.60;99.90;;;;;;5095187;28;20467;-53
2022/10/08 03:14:15;;;;;;;16.70;10.30;;;15.50;99.90;;;;;;5095111;28;20964;-53
2022/10/08 03:16:43;;;;;;;14.87;9.70;;;15.50;99.90;;;;;;5093457;28;20783;-53
2022/10/08 03:19:13;;;;;;;9.60;8.90;;;15.40;99.90;;;;;;5094641;28;20447;-53
2022/10/08 03:21:42;;;;;;;11.97;9.50;;;15.40;99.90;;;;;;5095158;28;20467;-53
2022/10/08 03:24:10;;;;;;;9.50;7.90;;;15.40;99.90;;;;;;5093389;28;20451;-53
2022/10/08 03:26:38;;;;;;;11.20;8.27;;;15.50;99.90;;;;;;5094745;28;20985;-52
2022/10/08 03:29:06;;;;;;;11.57;8.93;;;15.50;99.90;;;;;;5094545;28;20462;-53
2022/10/08 03:31:35;;;;;;;11.33;8.60;;;15.50;99.90;;;;;;5092889;28;20986;-53
2022/10/08 03:34:02;;;;;;;12.33;9.27;;;15.50;99.90;;;;;;5094722;28;20934;-53
2022/10/08 03:36:29;;;;;;;16.93;9.67;;;15.60;99.90;;;;;;5094643;28;20450;-53
2022/10/08 03:38:57;;;;;;;14.00;10.40;;;15.60;99.90;;;;;;5093057;28;20447;-53
2022/10/08 03:41:24;;;;;;;14.40;8.50;;;15.70;99.90;;;;;;5094774;28;20447;-53
2022/10/08 03:43:51;;;;;;;8.97;8.17;;;15.70;99.90;;;;;;5094800;28;20751;-53
2022/10/08 03:46:18;;;;;;;13.10;8.97;;;15.80;99.90;;;;;;5092915;28;20502;-53
2022/10/08 03:48:49;;;;;;;10.17;8.83;;;15.70;99.90;;;;;;5094504;28;20447;-53
2022/10/08 03:51:17;;;;;;;9.77;8.87;;;15.80;99.90;;;;;;5093233;28;20428;-53
2022/10/08 03:53:45;;;;;;;13.53;9.10;;;15.70;99.90;;;;;;5092524;28;20957;-53
2022/10/08 03:56:14;;;;;;;10.20;8.80;;;15.70;99.90;;;;;;5094281;28;20439;-53
2022/10/08 03:58:41;;;;;;;9.67;8.27;;;15.70;99.90;;;;;;5094086;28;20524;-53
2022/10/08 04:01:12;;;;;;;9.97;8.13;;;15.80;99.90;;;;;;5092688;28;20458;-53
2022/10/08 04:03:39;;;;;;;9.33;8.03;;;15.80;99.90;;;;;;5094297;28;20720;-52
2022/10/08 04:06:08;;;;;;;8.77;7.90;;;15.80;99.90;;;;;;5094422;28;20483;-52
2022/10/08 04:08:36;;;;;;;12.17;9.53;;;15.80;99.90;;;;;;5092364;28;20474;-52
2022/10/08 04:11:04;;;;;;;13.90;8.40;;;15.90;99.90;;;;;;5094177;28;20480;-53
2022/10/08 04:13:31;;;;;;;13.40;9.53;;;15.80;99.90;;;;;;5093894;28;20566;-53
2022/10/08 04:16:02;;;;;;;9.17;8.30;;;15.80;99.90;;;;;;5092218;28;20439;-53
2022/10/08 04:18:30;;;;;;;11.00;10.00;;;15.70;99.90;;;;;;5093940;28;20454;-53
2022/10/08 04:20:58;;;;;;;14.20;8.77;;;15.70;99.90;;;;;;5094132;28;20450;-53
2022/10/08 04:23:27;;;;;;;9.40;8.60;;;15.70;99.90;;;;;;5091890;28;20471;-53
2022/10/08 04:25:55;;;;;;;11.47;8.50;;;15.70;99.90;;;;;;5093935;28;20978;-53
2022/10/08 04:28:23;;;;;;;10.10;9.20;;;15.60;99.90;;;;;;5093393;28;20448;-53
2022/10/08 04:30:57;;;;;;;10.73;9.10;;;15.60;99.90;;;;;;5091102;28;20466;-53
2022/10/08 04:33:25;;;;;;;10.77;8.00;;;15.60;99.90;;;;;;5093981;28;20467;-53
2022/10/08 04:35:52;;;;;;;9.47;8.43;;;15.40;99.90;;;;;;5093875;28;20450;-53
2022/10/08 04:38:19;;;;;;;12.53;9.80;;;15.40;99.90;;;;;;5091192;28;20922;-53
2022/10/08 04:40:48;;;;;;;9.77;8.83;;;15.50;99.90;;;;;;5093984;28;20448;-53
2022/10/08 04:43:16;;;;;;;10.80;8.90;;;15.40;99.90;;;;;;5093546;28;20462;-53
2022/10/08 04:45:44;;;;;;;8.60;7.80;;;15.40;99.90;;;;;;5091055;28;20458;-53
2022/10/08 04:48:11;;;;;;;16.57;9.73;;;15.50;99.90;;;;;;5093119;28;20436;-53
2022/10/08 04:50:39;;;;;;;12.43;8.90;;;15.50;99.90;;;;;;5092927;28;20939;-53
2022/10/08 04:53:06;;;;;;;9.40;8.47;;;15.40;99.90;;;;;;5091345;28;20471;-53
2022/10/08 04:55:34;;;;;;;11.27;9.33;;;15.40;99.90;;;;;;5093082;28;20487;-53
2022/10/08 04:58:02;;;;;;;12.80;8.33;;;15.40;99.90;;;;;;5092865;28;20534;-53
2022/10/08 05:00:29;;;;;;;11.47;8.50;;;15.40;99.90;;;;;;5091294;28;20451;-53
2022/10/08 05:02:56;;;;;;;13.80;9.87;;;15.40;99.90;;;;;;5093132;28;20961;-53
2022/10/08 05:05:24;;;;;;;10.27;9.30;;;15.40;99.90;;;;;;5093395;28;20451;-53
2022/10/08 05:07:53;;;;;;;9.33;8.43;;;15.40;99.90;;;;;;5091186;28;20479;-53
2022/10/08 05:10:20;;;;;;;11.10;9.17;;;15.30;99.90;;;;;;5093233;28;20451;-53
2022/10/08 05:12:47;;;;;;;10.13;9.13;;;15.20;99.90;;;;;;5093173;28;20478;-53
2022/10/08 05:15:16;;;;;;;11.33;9.57;;;15.20;99.90;;;;;;5091134;28;20447;-53
2022/10/08 05:17:43;;;;;;;14.40;9.40;;;15.20;99.90;;;;;;5092932;28;20930;-53
2022/10/08 05:20:10;;;;;;;10.33;9.00;;;15.10;99.90;;;;;;5093015;28;20577;-53
2022/10/08 05:22:37;;;;;;;13.53;9.53;;;15.20;99.90;;;;;;5090668;28;20555;-53
2022/10/08 05:25:05;;;;;;;10.37;9.47;;;15.20;99.90;;;;;;5093110;28;20444;-53
2022/10/08 05:27:32;;;;;;;9.30;8.30;;;15.20;99.90;;;;;;5092215;28;20489;-53
2022/10/08 05:30:01;;;;;;;17.43;9.50;;;15.20;99.90;;;;;;5090832;28;20848;-53
2022/10/08 05:32:29;;;;;;;10.20;8.70;;;15.30;99.90;;;;;;5092545;28;20550;-53
2022/10/08 05:34:56;;;;;;;12.53;8.90;;;15.20;99.90;;;;;;5092216;28;20538;-54
2022/10/08 05:37:24;;;;;;;12.27;9.37;;;15.20;99.90;;;;;;5091094;28;20450;-53
2022/10/08 05:39:51;;;;;;;10.57;9.40;;;15.10;99.90;;;;;;5092439;28;20538;-53
2022/10/08 05:42:18;;;;;;;13.77;9.67;;;15.10;99.90;;;;;;5091977;28;20463;-53
2022/10/08 05:44:45;;;;;;;12.53;9.40;;;15.10;99.90;;;;;;5090753;28;20972;-52
2022/10/08 05:47:12;;;;;;;10.23;8.80;;;15.00;99.90;;;;;;5092692;28;20563;-53
2022/10/08 05:49:40;;;;;;;13.07;9.17;;;15.00;99.90;;;;;;5092025;28;20538;-52
2022/10/08 05:52:08;;;;;;;12.80;9.83;;;15.00;99.90;;;;;;5090554;28;20472;-53
2022/10/08 05:54:35;;;;;;;15.87;9.53;;;15.00;99.90;;;;;;5092247;28;20477;-53
2022/10/08 05:57:02;;;;;;;12.93;9.83;;;15.00;99.90;;;;;;5091794;28;20929;-53
2022/10/08 05:59:29;;;;;;;13.87;8.37;;;14.90;99.90;;;;;;5090507;28;20450;-53
2022/10/08 06:01:56;;;;;;;11.40;10.30;;;14.90;99.90;;;;;;5092701;28;20475;-53
2022/10/08 06:04:23;;;;;;;9.77;8.17;;;14.90;99.90;;;;;;5092125;28;20494;-53
2022/10/08 06:06:52;;;;;;;13.07;9.30;;;15.00;99.90;;;;;;5090421;28;20471;-53
2022/10/08 06:09:20;;;;;;;10.17;9.03;;;15.00;99.90;;;;;;5091940;28;20454;-53
2022/10/08 06:11:48;;;;;;;10.07;8.97;;;15.00;99.90;;;;;;5092123;28;20474;-53
2022/10/08 06:14:18;;;;;;;9.53;8.10;;;15.00;99.90;;;;;;5090355;28;20448;-53
2022/10/08 06:16:45;;;;;;;11.63;9.87;;;15.00;99.90;;;;;;5092433;28;20572;-53
2022/10/08 06:19:12;;;;;;;12.40;9.07;;;14.90;99.90;;;;;;5092145;28;20539;-53
2022/10/08 06:21:39;;;;;;;11.37;10.20;;;14.90;99.90;;;;;;5090500;28;20559;-52
2022/10/08 06:24:10;;;;;;;12.53;8.73;;;15.00;99.90;;;;;;5092000;28;20813;-53
2022/10/08 06:26:39;;;;;;;13.80;10.43;;;15.00;99.90;;;;;;5092245;28;20517;-52
2022/10/08 06:29:07;;;;;;;14.03;9.43;;;15.00;99.90;;;;;;5089854;28;20423;-52
2022/10/08 06:31:35;;;;;;;11.73;8.70;;;15.00;99.90;;;;;;5091782;28;20471;-53
2022/10/08 06:34:03;;;;;;;11.30;8.07;;;15.00;99.90;;;;;;5092361;28;20477;-53
2022/10/08 06:36:31;;;;;;;12.80;8.27;;;15.00;99.90;;;;;;5090183;28;20447;-53
2022/10/08 06:39:00;;;;;;;11.90;8.57;;;15.00;99.90;;;;;;5091647;28;20454;-53
2022/10/08 06:41:32;;;;;;;10.07;7.90;;;15.10;99.90;;;;;;5092072;28;20451;-53
2022/10/08 06:43:59;;;;;;;11.37;7.60;;;15.20;99.90;;;;;;5090389;28;20427;-53
2022/10/08 06:46:29;;;;;;;9.07;8.03;;;15.20;99.90;;;;;;5091444;28;20490;-53
2022/10/08 06:48:57;;;;;;;13.33;8.13;;;15.10;99.90;;;;;;5092292;28;20428;-52
2022/10/08 06:51:24;;;;;;;12.73;8.40;;;15.20;99.90;;;;;;5090038;28;20443;-53
2022/10/08 06:53:53;;;;;;;14.70;8.97;;;15.10;99.90;;;;;;5091779;28;20439;-53
2022/10/08 06:56:20;;;;;;;11.43;7.70;;;15.20;99.90;;;;;;5095817;28;20431;-53
2022/10/08 06:58:50;;;;;;;10.47;8.03;;;15.30;99.90;;;;;;5093033;28;20538;-53
2022/10/08 07:01:19;;;;;;;12.23;7.87;;;15.30;99.90;;;;;;5095251;28;20477;-52
2022/10/08 07:03:50;;;;;;;12.87;8.43;;;15.30;99.90;;;;;;5095467;28;20988;-52
2022/10/08 07:06:18;;;;;;;14.70;7.50;;;15.30;99.90;;;;;;5093403;28;20450;-53
2022/10/08 07:08:45;;;;;;;7.90;7.10;;;15.30;99.90;;;;;;5095403;28;20447;-53
2022/10/08 07:11:15;;;;;;;11.27;8.53;;;15.30;99.90;;;;;;5095000;28;20448;-54
2022/10/08 07:13:43;;;;;;;12.73;7.50;;;15.40;99.90;;;;;;5093478;28;20779;-54
2022/10/08 07:16:14;;;;;;;9.50;8.20;;;15.40;99.90;;;;;;5095140;28;20478;-54
2022/10/08 07:18:42;;;;;;;9.50;7.63;;;15.50;99.90;;;;;;5095455;28;20424;-54
2022/10/08 07:21:12;;;;;;;9.30;6.30;;;15.60;99.90;;;;;;5093246;28;20447;-54
2022/10/08 07:23:39;;;;;;;12.10;7.13;;;15.60;99.90;;;;;;5096949;28;20786;-54
2022/10/08 07:26:08;;;;;;;14.13;6.77;;;15.70;99.90;;;;;;5106325;28;20542;-54
2022/10/08 07:28:40;;;;;;;10.63;6.87;;;15.80;99.90;;;;;;5097361;28;20835;-54
2022/10/08 07:31:09;;;;;;;14.73;6.37;;;15.90;99.90;;;;;;5094765;28;20469;-56
2022/10/08 07:33:39;;;;;;;6.87;6.27;;;16.00;99.90;;;;;;5094279;28;20453;-56
2022/10/08 07:36:11;;;;;;;11.70;6.07;;;16.10;99.90;;;;;;5103405;28;20455;-50
2022/10/08 07:38:39;;;;;;;8.23;6.03;;;16.20;99.90;;;;;;5092376;28;20565;-51
2022/10/08 07:41:07;;;;;;;11.50;6.50;;;16.20;99.90;;;;;;5092531;28;20443;-51
2022/10/08 07:43:34;;;;;;;12.00;6.57;;;16.30;99.90;;;;;;5093185;28;20471;-55
2022/10/08 07:46:01;;;;;;;7.77;5.73;;;16.30;99.90;;;;;;5102187;28;20442;-55
2022/10/08 07:48:29;;;;;;;7.10;5.90;;;16.30;99.90;;;;;;5094213;28;20480;-55
2022/10/08 07:51:07;;;;;;;7.53;5.30;;;16.40;99.90;;;;;;5103680;28;20997;-55
2022/10/08 07:53:35;;;;;;;6.73;5.90;;;16.50;99.90;;;;;;5098292;28;20463;-56
2022/10/08 07:56:02;;;;;;;6.10;5.00;;;16.40;99.90;;;;;;5100888;28;20478;-55
2022/10/08 07:58:29;;;;;;;11.53;6.37;;;16.60;99.90;;;;;;5111076;28;20471;-52
2022/10/08 08:00:57;;;;;;;10.27;6.37;;;16.70;99.90;;;;;;5096954;28;20457;-54
2022/10/08 08:03:25;;;;;;;10.50;5.43;;;16.60;99.90;;;;;;5097105;28;20470;-56
2022/10/08 08:05:53;;;;;;;8.77;5.40;;;16.60;99.90;;;;;;5099487;28;20493;-62
2022/10/08 08:08:23;;;;;;;10.43;5.80;;;16.90;99.90;;;;;;5110301;28;20505;-58
2022/10/08 08:10:56;;;;;;;8.00;5.53;;;16.80;99.90;;;;;;5096071;28;20448;-61
2022/10/08 08:13:23;;;;;;;13.27;5.40;;;16.90;99.90;;;;;;5093537;28;20493;-62
2022/10/08 08:15:57;;;;;;;7.90;5.10;;;16.80;99.90;;;;;;5100619;27;20454;-63
2022/10/08 08:18:28;;;;;;;9.57;4.47;;;16.70;99.90;;;;;;5103857;28;20431;-58
2022/10/08 08:20:59;;;;;;;8.30;4.67;;;16.90;99.90;;;;;;5103400;27;20824;-53
2022/10/08 08:23:30;;;;;;;11.23;4.50;;;16.70;99.90;;;;;;5103858;27;21041;-56
2022/10/08 08:26:01;;;;;;;9.10;4.63;;;16.70;99.90;;;;;;5099024;27;20458;-60
2022/10/08 08:28:28;;;;;;;9.50;4.50;;;16.50;99.90;;;;;;5104606;28;20568;-57
2022/10/08 08:30:56;;;;;;;8.27;4.00;;;16.40;99.90;;;;;;5103386;27;20866;-57
2022/10/08 08:33:23;;;;;;;8.43;4.47;;;16.40;99.90;;;;;;5098068;28;21001;-59
2022/10/08 08:35:55;;;;;;;8.50;4.40;;;16.40;99.90;;;;;;5107895;28;20439;-55
2022/10/08 08:38:22;;;;;;;10.20;3.27;;;16.60;99.90;;;;;;5092647;27;20448;-59
2022/10/08 08:40:52;;;;;;;7.90;3.17;;;16.70;99.90;;;;;;5096974;28;20485;-56
2022/10/08 08:43:20;;;;;;;4.97;3.30;;;16.80;99.90;;;;;;5106867;28;20478;-52
2022/10/08 08:45:48;;;;;;;6.13;3.43;;;16.80;99.90;;;;;;5103255;28;20554;-58
2022/10/08 08:48:20;;;;;;;9.00;3.43;;;16.90;99.90;;;;;;5095795;27;20477;-59
2022/10/08 08:50:50;;;;;;;8.33;4.00;;;17.00;99.90;;;;;;5099098;27;20545;-54
2022/10/08 08:53:18;;;;;;;9.10;3.13;;;17.20;99.90;;;;;;5105334;28;20475;-54
2022/10/08 08:55:48;;;;;;;9.83;3.60;;;17.30;99.90;;;;;;5107928;27;20848;-56
2022/10/08 08:58:32;;;;;;;14.13;3.80;;;17.40;99.90;;;;;;5100355;28;20451;-57
2022/10/08 09:01:06;;;;;;;7.83;3.60;;;17.40;99.90;;;;;;5104450;28;20952;-58
2022/10/08 09:03:39;;;;;;;9.33;3.40;;;17.40;99.90;;;;;;5106625;28;20851;-54
2022/10/08 09:06:09;;;;;;;4.80;3.30;;;17.50;99.90;;;;;;5103248;28;20450;-51
2022/10/08 09:08:42;;;;;;;5.80;3.47;;;17.60;99.90;;;;;;5105676;27;20481;-55
2022/10/08 09:11:15;;;;;;;6.33;3.53;;;17.60;99.90;;;;;;5101547;28;20439;-54
2022/10/08 09:13:51;;;;;;;4.90;3.07;;;17.70;99.90;;;;;;5095463;27;20455;-55
2022/10/08 09:16:18;;;;;;;6.40;3.87;;;17.70;99.90;;;;;;5091728;27;20458;-55
2022/10/08 09:18:47;;;;;;;18.97;9.53;;;17.60;99.90;;;;;;5103580;28;20451;-54
2022/10/08 09:21:14;;;;;;;18.83;7.60;;;17.70;99.90;;;;;;5106343;27;20539;-58
2022/10/08 09:23:42;;;;;;;7.97;4.27;;;17.60;99.90;;;;;;5103691;27;20468;-54
2022/10/08 09:26:16;;;;;;;15.30;7.67;;;17.70;99.90;;;;;;5100286;28;20438;-54
2022/10/08 09:28:48;;;;;;;10.60;4.90;;;17.70;99.90;;;;;;5097680;27;20488;-52
2022/10/08 09:31:25;;;;;;;8.80;4.70;;;17.70;99.90;;;;;;5101343;28;20466;-50
2022/10/08 09:34:02;;;;;;;7.30;4.13;;;17.90;99.90;;;;;;5096487;27;20527;-56
2022/10/08 09:36:31;;;;;;;8.07;3.70;;;17.90;99.90;;;;;;5100659;28;20449;-53
2022/10/08 09:38:59;;;;;;;7.60;2.87;;;17.90;99.90;;;;;;5097069;27;20472;-56
2022/10/08 09:41:27;;;;;;;5.63;3.30;;;18.00;99.90;;;;;;5098621;27;20454;-54
2022/10/08 09:44:13;;;;;;;6.43;3.40;;;18.10;99.90;;;;;;5097072;27;20450;-60
2022/10/08 09:46:40;;;;;;;10.20;3.37;;;20.10;99.90;;;;;;5099906;28;21615;-61
2022/10/08 09:49:26;;;;;;;6.63;3.63;;;20.70;99.90;;;;;;5097837;28;20474;-56
2022/10/08 09:51:53;;;;;;;8.17;3.33;;;21.10;99.90;;;;;;5096848;28;20520;-53
2022/10/08 09:54:25;;;;;;;5.47;3.40;;;20.50;99.90;;;;;;5099189;28;20497;-56
2022/10/08 09:56:58;;;;;;;5.77;3.23;;;20.10;99.90;;;;;;5101488;28;20445;-52
2022/10/08 09:59:29;;;;;;;6.80;2.67;;;21.20;99.90;;;;;;5099596;28;20450;-60
2022/10/08 10:01:57;;;;;;;10.50;2.93;;;21.80;99.90;;;;;;5102225;28;20486;-51
2022/10/08 10:04:32;;;;;;;17.93;5.00;;;21.90;99.90;;;;;;5099060;28;20507;-60
2022/10/08 10:07:01;;;;;;;6.53;3.73;;;;;;;;;;5099627;28;20533;-55
2022/10/08 10:09:42;;;;;;;5.03;3.10;;;22.10;98.90;;;;;;5099822;28;20514;-56
2022/10/08 10:12:24;;;;;;;6.57;3.87;;;22.10;98.70;;;;;;5099934;28;20474;-56
2022/10/08 10:14:55;;;;;;;7.53;4.10;;;;;;;;;;5102368;28;20482;-58
2022/10/08 10:17:33;;;;;;;7.07;3.60;;;23.60;96.40;;;;;;5102596;28;20459;-61
2022/10/08 10:20:04;;;;;;;5.43;3.43;;;23.50;95.70;;;;;;5103072;28;20434;-57
2022/10/08 10:22:37;;;;;;;4.00;2.60;;;23.50;94.60;;;;;;5100090;28;21444;-59
2022/10/08 10:25:13;;;;;;;12.30;5.10;;;23.50;94.00;;;;;;5104176;28;20453;-55
2022/10/08 10:27:47;;;;;;;17.90;7.53;;;22.50;95.10;;;;;;5103743;28;20458;-60
2022/10/08 10:30:20;;;;;;;20.37;8.90;;;22.00;96.40;;;;;;5099463;28;20478;-51
2022/10/08 10:32:53;;;;;;;11.00;5.07;;;21.80;97.00;;;;;;5103499;28;20532;-56
2022/10/08 10:35:24;;;;;;;11.77;5.07;;;22.60;96.40;;;;;;5101074;28;20451;-55
2022/10/08 10:37:58;;;;;;;12.00;4.50;;;23.90;95.60;;;;;;5106449;27;20478;-54
2022/10/08 10:40:40;;;;;;;4.80;3.23;;;25.20;93.40;;;;;;5107077;27;20450;-59
2022/10/08 10:43:31;;;;;;;7.60;3.50;;;25.20;93.40;;;;;;5094793;28;20474;-53
2022/10/08 10:46:06;;;;;;;11.33;3.87;;;24.90;92.30;;;;;;5102971;27;20462;-49
2022/10/08 10:48:33;;;;;;;11.47;3.90;;;24.40;91.80;;;;;;5098520;28;20466;-60
2022/10/08 10:51:23;;;;;;;9.73;3.97;;;24.70;92.00;;;;;;5101239;27;20466;-54
2022/10/08 10:54:03;;;;;;;9.33;3.67;;;24.70;91.10;;;;;;5085619;27;20950;-60
2022/10/08 10:56:36;;;;;;;6.67;3.17;;;24.90;90.10;;;;;;5103296;28;20491;-61
2022/10/08 10:59:19;;;;;;;7.10;3.17;;;24.40;88.10;;;;;;5104482;28;20441;-65
2022/10/08 11:01:53;;;;;;;10.80;3.40;;;24.30;89.00;;;;;;5107517;27;20474;-65
2022/10/08 11:04:32;;;;;;;4.47;2.70;;;25.00;88.00;;;;;;5104473;28;21131;-70
2022/10/08 11:07:08;;;;;;;7.67;2.90;;;24.80;84.40;;;;;;5104564;28;20493;-65
2022/10/08 11:09:44;;;;;;;7.87;2.50;;;24.70;83.60;;;;;;5111389;28;20462;-66
2022/10/08 11:12:24;;;;;;;5.93;2.40;;;24.50;84.00;;;;;;5109672;28;20827;-64
2022/10/08 11:14:59;;;;;;;5.87;2.60;;;25.10;84.80;;;;;;5102126;28;20499;-64
2022/10/08 11:17:43;;;;;;;7.90;3.13;;;25.40;83.80;;;;;;5100882;27;21019;-63
2022/10/08 11:20:38;;;;;;;3.47;2.33;;;25.00;82.80;;;;;;5102842;27;20959;-61
2022/10/08 11:23:15;;;;;;;8.80;3.10;;;25.10;82.00;;;;;;5103715;28;20475;-57
2022/10/08 11:25:47;;;;;;;13.03;3.77;;;24.50;82.30;;;;;;5099322;27;20438;-63
2022/10/08 11:28:24;;;;;;;3.90;2.30;;;24.90;83.00;;;;;;5103009;27;20481;-61
2022/10/08 11:30:59;;;;;;;10.50;4.07;;;24.70;81.10;;;;;;5106320;28;20454;-60
2022/10/08 11:33:29;;;;;;;12.87;3.50;;;24.80;80.60;;;;;;5104809;28;20478;-61
2022/10/08 11:36:13;;;;;;;8.70;3.40;;;24.90;80.00;;;;;;5103521;28;20451;-61
2022/10/08 11:38:44;;;;;;;5.03;2.77;;;25.30;79.20;;;;;;5105203;28;20469;-65
2022/10/08 11:41:16;;;;;;;5.37;2.63;;;25.20;77.80;;;;;;5108306;28;20446;-65
2022/10/08 11:43:51;;;;;;;5.70;2.53;;;24.50;79.10;;;;;;5104607;28;20419;-69
2022/10/08 11:46:27;;;;;;;3.73;2.20;;;23.60;77.60;;;;;;5107791;28;20434;-62
2022/10/08 11:48:56;;;;;;;6.43;2.40;;;23.10;81.50;;;;;;5101535;28;20750;-61
2022/10/08 11:51:37;;;;;;;8.50;3.13;;;23.60;80.30;;;;;;5108553;28;20949;-61
2022/10/08 11:54:12;;;;;;;8.23;3.50;;;23.10;78.60;;;;;;5109894;28;20448;-69
2022/10/08 11:56:42;;;;;;;7.57;2.50;;;23.00;79.90;;;;;;5111902;28;20454;-62
2022/10/08 11:59:25;;;;;;;7.03;2.90;;;22.70;79.70;;;;;;5104609;28;20530;-61
2022/10/08 12:01:55;;;;;;;4.70;2.63;;;23.10;83.00;;;;;;5111693;28;20476;-64
2022/10/08 12:04:30;;;;;;;4.50;3.10;;;23.40;80.30;;;;;;5109886;28;20973;-62
2022/10/08 12:07:04;;;;;;;4.80;2.67;;;23.30;81.00;;;;;;5113473;28;20442;-62
2022/10/08 12:10:21;;;;;;;7.17;4.13;;;23.40;82.10;;;;;;5110409;28;20463;-66
2022/10/08 12:13:26;;;;;;;6.30;2.80;;;23.50;81.20;;;;;;5108805;28;20466;-60
2022/10/08 12:15:58;;;;;;;7.83;3.10;;;23.30;83.00;;;;;;5109541;28;20461;-60
2022/10/08 12:18:42;;;;;;;3.87;1.93;;;23.50;82.00;;;;;;5110751;28;20530;-62
2022/10/08 12:21:46;;;;;;;7.10;2.87;;;23.30;81.70;;;;;;5109369;28;20438;-62
2022/10/08 12:24:46;;;;;;;3.20;2.67;;;23.40;82.20;;;;;;5107869;28;20826;-61
2022/10/08 12:27:34;;;;;;;5.20;2.80;;;23.50;81.80;;;;;;5110775;28;20450;-62
2022/10/08 12:30:06;;;;;;;8.97;2.97;;;22.80;82.00;;;;;;5108845;28;20478;-62
2022/10/08 12:32:52;;;;;;;4.20;3.20;;;22.70;82.00;;;;;;5109629;28;20980;-61
2022/10/08 12:35:22;;;;;;;6.53;2.40;;;23.00;82.10;;;;;;5107928;28;20427;-62
2022/10/08 12:38:04;;;;;;;7.17;2.60;;;23.20;82.30;;;;;;5112546;28;20550;-62
2022/10/08 12:40:37;;;;;;;5.17;2.20;;;23.60;82.20;;;;;;5115985;28;20435;-58
2022/10/08 12:43:20;;;;;;;6.27;4.50;;;23.40;81.70;;;;;;5110833;28;20458;-60
2022/10/08 12:45:55;;;;;;;7.53;4.40;;;23.20;82.00;;;;;;5112576;28;20445;-62
2022/10/08 12:48:32;;;;;;;6.67;2.70;;;23.10;83.50;;;;;;5108150;28;20474;-59
2022/10/08 12:51:10;;;;;;;4.33;2.60;;;22.90;83.10;;;;;;5103717;28;20446;-57
2022/10/08 12:53:43;;;;;;;7.47;2.60;;;23.30;83.00;;;;;;5100790;28;20515;-59
2022/10/08 12:56:16;;;;;;;5.53;2.90;;;22.90;82.50;;;;;;5104548;28;20759;-56
2022/10/08 12:58:45;;;;;;;7.77;3.30;;;22.70;83.80;;;;;;5102852;28;20434;-59
2022/10/08 13:01:16;;;;;;;10.90;4.93;;;22.80;82.40;;;;;;5112650;28;21045;-58
2022/10/08 13:03:44;;;;;;;8.20;3.93;;;23.00;82.30;;;;;;5104578;28;20446;-61